createdAt,value
2018-10-01T00:01:50.680Z,83.63
2018-10-01T00:04:25.189Z,83.75
2018-10-01T00:07:00.121Z,84.27
2018-10-01T00:09:35.364Z,83.91
2018-10-01T00:12:10.456Z,84.17
2018-10-01T00:14:44.977Z,84.28
2018-10-01T00:17:20.018Z,83.75
2018-10-01T00:20:00.532Z,84.00
2018-10-01T00:22:40.724Z,83.66
2018-10-01T00:25:16.009Z,83.70
2018-10-01T00:27:50.956Z,83.97
2018-10-01T00:30:25.689Z,84.17
2018-10-01T00:33:00.297Z,84.47
2018-10-01T00:35:35.061Z,85.05
2018-10-01T00:38:09.563Z,85.34
2018-10-01T00:40:44.016Z,84.69
2018-10-01T00:43:19.323Z,85.22
2018-10-01T00:45:54.056Z,85.42
2018-10-01T00:48:28.362Z,85.40
2018-10-01T00:51:03.183Z,85.08
2018-10-01T00:53:37.804Z,85.36
2018-10-01T00:56:12.716Z,85.43
2018-10-01T00:58:47.267Z,85.51
2018-10-01T01:01:21.837Z,85.68
2018-10-01T01:03:56.566Z,85.98
2018-10-01T01:06:31.084Z,86.85
2018-10-01T01:09:07.917Z,86.48
2018-10-01T01:11:42.673Z,87.05
2018-10-01T01:14:17.260Z,86.39
2018-10-01T01:16:51.959Z,86.64
2018-10-01T01:19:26.391Z,87.50
2018-10-01T01:22:01.349Z,87.89
2018-10-01T01:24:35.927Z,88.00
2018-10-01T01:27:10.309Z,87.10
2018-10-01T01:29:44.760Z,87.52
2018-10-01T01:32:24.976Z,87.74
2018-10-01T01:34:59.736Z,87.21
2018-10-01T01:37:34.239Z,87.38
2018-10-01T01:40:08.841Z,87.39
2018-10-01T01:42:43.312Z,88.33
2018-10-01T01:45:18.947Z,87.33
2018-10-01T01:47:53.701Z,87.52
2018-10-01T01:50:28.271Z,88.12
2018-10-01T01:53:06.704Z,87.77
2018-10-01T01:55:41.100Z,87.85
2018-10-01T01:58:16.027Z,87.79
2018-10-01T02:00:50.868Z,88.79
2018-10-01T02:03:25.234Z,88.61
2018-10-01T02:06:00.293Z,88.33
2018-10-01T02:08:35.479Z,88.09
2018-10-01T02:11:10.050Z,88.09
2018-10-01T02:13:44.536Z,88.27
2018-10-01T02:16:19.309Z,88.78
2018-10-01T02:18:54.012Z,88.13
2018-10-01T02:21:28.392Z,87.60
2018-10-01T02:24:03.200Z,88.32
2018-10-01T02:26:38.114Z,88.05
2018-10-01T02:29:12.928Z,88.03
2018-10-01T02:31:47.355Z,88.05
2018-10-01T02:34:21.868Z,88.41
2018-10-01T02:36:56.224Z,88.08
2018-10-01T02:39:30.632Z,87.89
2018-10-01T02:42:06.500Z,87.94
2018-10-01T02:44:40.785Z,88.42
2018-10-01T02:47:15.644Z,88.16
2018-10-01T02:49:50.441Z,88.88
2018-10-01T02:52:30.217Z,88.58
2018-10-01T02:55:05.072Z,87.91
2018-10-01T02:57:40.392Z,87.22
2018-10-01T03:00:15.212Z,87.92
2018-10-01T03:02:50.119Z,88.42
2018-10-01T03:05:24.408Z,87.82
2018-10-01T03:07:58.735Z,87.85
2018-10-01T03:10:33.497Z,88.04
2018-10-01T03:13:07.800Z,87.12
2018-10-01T03:15:42.952Z,87.04
2018-10-01T03:18:17.531Z,87.40
2018-10-01T03:20:52.775Z,87.92
2018-10-01T03:23:27.091Z,86.90
2018-10-01T03:26:01.588Z,86.48
2018-10-01T03:28:36.104Z,87.79
2018-10-01T03:31:10.420Z,87.79
2018-10-01T03:33:45.084Z,87.07
2018-10-01T03:36:19.540Z,87.27
2018-10-01T03:38:54.472Z,87.40
2018-10-01T03:41:29.087Z,87.72
2018-10-01T03:44:03.649Z,87.58
2018-10-01T03:46:39.027Z,87.55
2018-10-01T03:49:17.942Z,87.57
2018-10-01T03:51:52.584Z,88.27
2018-10-01T03:54:27.144Z,87.97
2018-10-01T03:57:01.831Z,87.78
2018-10-01T03:59:36.812Z,87.98
2018-10-01T04:02:11.243Z,88.31
2018-10-01T04:04:50.026Z,88.45
2018-10-01T04:07:26.993Z,88.11
2018-10-01T04:10:01.423Z,87.93
2018-10-01T04:12:43.951Z,87.76
2018-10-01T04:15:18.420Z,87.75
2018-10-01T04:17:53.258Z,87.99
2018-10-01T04:20:27.984Z,88.82
2018-10-01T04:23:02.499Z,88.24
2018-10-01T04:25:37.004Z,88.54
2018-10-01T04:28:17.454Z,88.45
2018-10-01T04:30:52.628Z,88.49
2018-10-01T04:33:27.458Z,88.10
2018-10-01T04:36:02.460Z,87.92
2018-10-01T04:38:36.996Z,87.74
2018-10-01T04:41:26.376Z,88.34
2018-10-01T04:44:04.059Z,89.16
2018-10-01T04:46:41.258Z,88.68
2018-10-01T04:49:17.315Z,89.12
2018-10-01T04:51:51.687Z,88.46
2018-10-01T04:54:32.074Z,88.75
2018-10-01T04:57:08.352Z,88.68
2018-10-01T04:59:43.163Z,88.53
2018-10-01T05:02:18.120Z,88.65
2018-10-01T05:05:05.577Z,88.70
2018-10-01T05:07:40.334Z,88.99
2018-10-01T05:10:22.445Z,88.60
2018-10-01T05:12:58.875Z,88.45
2018-10-01T05:15:33.647Z,88.06
2018-10-01T05:18:08.207Z,88.70
2018-10-01T05:20:43.095Z,88.94
2018-10-01T05:23:34.211Z,89.14
2018-10-01T05:26:09.531Z,89.06
2018-10-01T05:29:07.627Z,88.17
2018-10-01T05:31:42.188Z,87.47
2018-10-01T05:34:16.657Z,86.62
2018-10-01T05:36:54.338Z,86.95
2018-10-01T05:39:28.864Z,87.31
2018-10-01T05:42:03.376Z,87.65
2018-10-01T05:44:38.112Z,86.32
2018-10-01T05:47:12.552Z,86.41
2018-10-01T05:49:47.268Z,86.45
2018-10-01T05:52:21.626Z,86.24
2018-10-01T05:54:56.446Z,87.07
2018-10-01T05:57:31.158Z,86.57
2018-10-01T06:00:06.224Z,86.97
2018-10-01T06:02:40.855Z,87.21
2018-10-01T06:05:15.305Z,86.43
2018-10-01T06:07:49.923Z,86.72
2018-10-01T06:10:24.368Z,86.33
2018-10-01T06:12:59.633Z,86.63
2018-10-01T06:15:33.985Z,86.61
2018-10-01T06:18:08.704Z,85.93
2018-10-01T06:20:43.875Z,86.05
2018-10-01T06:23:18.316Z,85.54
2018-10-01T06:25:53.312Z,85.44
2018-10-01T06:28:28.160Z,85.19
2018-10-01T06:31:02.671Z,85.79
2018-10-01T06:33:37.448Z,85.21
2018-10-01T06:36:11.954Z,85.90
2018-10-01T06:38:46.692Z,85.82
2018-10-01T06:41:21.604Z,85.08
2018-10-01T06:43:56.104Z,85.21
2018-10-01T06:46:30.932Z,85.95
2018-10-01T06:49:05.772Z,86.93
2018-10-01T06:51:55.048Z,87.24
2018-10-01T06:54:29.531Z,87.57
2018-10-01T06:57:04.259Z,87.21
2018-10-01T06:59:39.497Z,86.84
2018-10-01T07:02:14.096Z,87.12
2018-10-01T07:04:48.526Z,87.17
2018-10-01T07:07:23.613Z,87.21
2018-10-01T07:09:58.287Z,86.61
2018-10-01T07:12:33.064Z,86.82
2018-10-01T07:15:07.596Z,87.12
2018-10-01T07:17:42.185Z,87.34
2018-10-01T07:20:16.768Z,87.39
2018-10-01T07:22:51.547Z,88.40
2018-10-01T07:25:26.368Z,88.60
2018-10-01T07:28:00.832Z,87.41
2018-10-01T07:30:35.886Z,86.90
2018-10-01T07:33:10.958Z,86.39
2018-10-01T07:35:45.711Z,86.94
2018-10-01T07:38:20.056Z,86.72
2018-10-01T07:40:54.687Z,87.36
2018-10-01T07:43:29.239Z,87.07
2018-10-01T07:46:04.361Z,86.40
2018-10-01T07:48:40.096Z,86.02
2018-10-01T07:51:14.615Z,85.87
2018-10-01T07:53:49.061Z,85.99
2018-10-01T07:56:23.387Z,85.52
2018-10-01T07:58:58.160Z,85.82
2018-10-01T08:01:32.917Z,81.10
2018-10-01T08:04:08.020Z,80.94
2018-10-01T08:06:42.428Z,81.24
2018-10-01T08:09:17.093Z,82.87
2018-10-01T08:11:51.751Z,82.52
2018-10-01T08:14:26.611Z,82.67
2018-10-01T08:17:01.536Z,83.71
2018-10-01T08:19:36.037Z,84.54
2018-10-01T08:22:10.804Z,84.95
2018-10-01T08:24:45.368Z,83.22
2018-10-01T08:27:19.956Z,83.24
2018-10-01T08:29:54.337Z,82.49
2018-10-01T08:32:29.003Z,83.11
2018-10-01T08:35:03.769Z,80.73
2018-10-01T08:37:38.823Z,80.17
2018-10-01T08:40:14.030Z,82.20
2018-10-01T08:42:49.208Z,82.69
2018-10-01T08:45:24.222Z,82.83
2018-10-01T08:47:59.052Z,81.53
2018-10-01T08:50:37.070Z,81.49
2018-10-01T08:53:16.852Z,78.53
2018-10-01T08:55:51.375Z,79.58
2018-10-01T08:58:26.076Z,78.78
2018-10-01T09:01:01.118Z,80.53
2018-10-01T09:03:36.184Z,78.68
2018-10-01T09:06:10.921Z,80.20
2018-10-01T09:08:45.272Z,80.58
2018-10-01T09:11:19.733Z,78.48
2018-10-01T09:13:54.992Z,79.84
2018-10-01T09:16:29.652Z,79.83
2018-10-01T09:19:04.520Z,80.04
2018-10-01T09:21:38.947Z,80.26
2018-10-01T09:24:13.995Z,78.86
2018-10-01T09:26:49.076Z,80.61
2018-10-01T09:29:23.627Z,80.94
2018-10-01T09:31:58.311Z,81.19
2018-10-01T09:34:33.399Z,80.92
2018-10-01T09:37:08.208Z,80.23
2018-10-01T09:39:43.827Z,79.39
2018-10-01T09:42:19.419Z,81.12
2018-10-01T09:44:54.220Z,82.00
2018-10-01T09:47:28.947Z,81.18
2018-10-01T09:50:04.162Z,80.96
2018-10-01T09:52:42.463Z,81.23
2018-10-01T09:55:18.577Z,81.02
2018-10-01T09:57:53.192Z,77.25
2018-10-01T10:00:36.097Z,77.21
2018-10-01T10:03:14.274Z,76.46
2018-10-01T10:05:49.624Z,76.90
2018-10-01T10:08:24.831Z,77.38
2018-10-01T10:11:01.057Z,79.05
2018-10-01T10:13:35.519Z,77.93
2018-10-01T10:16:10.291Z,79.32
2018-10-01T10:18:45.961Z,78.92
2018-10-01T10:21:20.512Z,80.31
2018-10-01T10:23:56.413Z,79.60
2018-10-01T10:26:31.025Z,77.69
2018-10-01T10:29:06.606Z,77.67
2018-10-01T10:31:41.375Z,76.04
2018-10-01T10:34:16.521Z,77.59
2018-10-01T10:36:51.467Z,76.83
2018-10-01T10:39:28.270Z,77.63
2018-10-01T10:42:05.184Z,75.70
2018-10-01T10:44:42.639Z,74.79
2018-10-01T10:47:21.270Z,75.80
2018-10-01T10:49:56.650Z,75.20
2018-10-01T10:52:41.019Z,76.54
2018-10-01T10:55:16.191Z,75.14
2018-10-01T10:57:50.851Z,76.57
2018-10-01T11:00:26.137Z,77.97
2018-10-01T11:03:00.616Z,78.42
2018-10-01T11:05:40.640Z,78.33
2018-10-01T11:08:15.361Z,78.66
2018-10-01T11:10:51.041Z,77.99
2018-10-01T11:13:32.956Z,79.22
2018-10-01T11:19:15.826Z,78.82
2018-10-01T11:21:50.484Z,76.91
2018-10-01T11:24:25.095Z,74.18
2018-10-01T11:26:59.618Z,74.75
2018-10-01T11:29:34.695Z,72.39
2018-10-01T11:32:11.047Z,72.09
2018-10-01T11:35:03.983Z,72.44
2018-10-01T11:37:40.816Z,70.71
2018-10-01T11:40:15.928Z,71.68
2018-10-01T11:42:50.857Z,71.84
2018-10-01T11:45:25.670Z,69.90
2018-10-01T11:48:00.184Z,69.12
2018-10-01T11:50:37.636Z,68.96
2018-10-01T11:53:12.568Z,68.67
2018-10-01T11:55:47.359Z,71.19
2018-10-01T11:58:22.101Z,70.30
2018-10-01T12:00:57.968Z,71.12
2018-10-01T12:03:32.506Z,70.21
2018-10-01T12:06:08.233Z,71.00
2018-10-01T12:08:42.719Z,68.60
2018-10-01T12:11:17.279Z,71.51
2018-10-01T12:13:52.013Z,71.21
2018-10-01T12:16:26.767Z,69.22
2018-10-01T12:19:01.652Z,68.50
2018-10-01T12:21:36.107Z,68.85
2018-10-01T12:24:10.793Z,69.18
2018-10-01T12:26:45.822Z,70.27
2018-10-01T12:29:20.785Z,70.17
2018-10-01T12:32:05.445Z,70.06
2018-10-01T12:34:40.044Z,70.47
2018-10-01T12:37:14.724Z,71.87
2018-10-01T12:39:49.387Z,70.87
2018-10-01T12:42:24.174Z,70.79
2018-10-01T12:45:05.394Z,70.74
2018-10-01T12:47:40.084Z,73.28
2018-10-01T12:50:15.408Z,70.49
2018-10-01T12:52:57.203Z,71.54
2018-10-01T12:55:31.527Z,67.68
2018-10-01T12:58:06.767Z,69.72
2018-10-01T13:00:41.816Z,67.67
2018-10-01T13:03:17.933Z,66.26
2018-10-01T13:05:52.727Z,67.74
2018-10-01T13:08:27.666Z,68.46
2018-10-01T13:11:02.328Z,70.14
2018-10-01T13:13:36.736Z,70.55
2018-10-01T13:16:11.628Z,69.53
2018-10-01T13:18:46.619Z,71.57
2018-10-01T13:21:21.436Z,72.36
2018-10-01T13:23:56.044Z,73.39
2018-10-01T13:26:31.961Z,75.88
2018-10-01T13:29:06.609Z,75.94
2018-10-01T13:31:41.339Z,76.07
2018-10-01T13:34:16.739Z,77.83
2018-10-01T13:36:51.648Z,77.87
2018-10-01T13:39:26.468Z,76.15
2018-10-01T13:42:02.369Z,74.85
2018-10-01T13:44:39.301Z,71.93
2018-10-01T13:47:17.026Z,71.93
2018-10-01T13:49:55.842Z,72.06
2018-10-01T13:52:30.687Z,70.06
2018-10-01T13:55:05.070Z,71.10
2018-10-01T13:57:47.650Z,68.08
2018-10-01T14:00:22.859Z,68.38
2018-10-01T14:02:57.369Z,68.46
2018-10-01T14:05:32.475Z,69.76
2018-10-01T14:08:07.003Z,70.69
2018-10-01T14:10:42.039Z,69.59
2018-10-01T14:13:16.978Z,67.96
2018-10-01T14:15:52.372Z,68.48
2018-10-01T14:18:31.145Z,71.28
2018-10-01T14:21:06.042Z,70.42
2018-10-01T14:23:40.798Z,70.98
2018-10-01T14:26:15.559Z,70.25
2018-10-01T14:28:50.184Z,71.39
2018-10-01T14:31:28.555Z,70.83
2018-10-01T14:34:09.977Z,71.64
2018-10-01T14:36:44.897Z,70.27
2018-10-01T14:39:22.821Z,71.96
2018-10-01T14:41:58.231Z,71.38
2018-10-01T14:44:33.280Z,70.89
2018-10-01T14:47:08.382Z,71.83
2018-10-01T14:49:42.820Z,69.93
2018-10-01T14:52:17.308Z,69.47
2018-10-01T14:55:00.060Z,68.65
2018-10-01T14:57:34.868Z,70.48
2018-10-01T15:00:09.578Z,71.70
2018-10-01T15:02:44.187Z,69.14
2018-10-01T15:07:52.282Z,71.88
2018-10-01T15:10:26.989Z,71.57
2018-10-01T15:13:01.537Z,72.93
2018-10-01T15:15:41.872Z,71.84
2018-10-01T15:18:16.552Z,70.84
2018-10-01T15:20:51.529Z,71.41
2018-10-01T15:23:26.293Z,71.72
2018-10-01T15:26:00.788Z,71.67
2018-10-01T15:28:35.481Z,71.20
2018-10-01T15:31:10.693Z,71.16
2018-10-01T15:33:45.144Z,71.24
2018-10-01T15:36:19.631Z,71.40
2018-10-01T15:38:54.717Z,71.54
2018-10-01T15:41:29.564Z,72.07
2018-10-01T15:44:04.441Z,72.55
2018-10-01T15:46:47.071Z,72.96
2018-10-01T15:49:23.936Z,72.97
2018-10-01T15:51:58.555Z,72.08
2018-10-01T15:54:33.476Z,72.82
2018-10-01T15:57:08.205Z,71.36
2018-10-01T15:59:43.307Z,71.59
2018-10-01T16:02:18.034Z,71.74
2018-10-01T16:04:52.766Z,71.84
2018-10-01T16:07:28.509Z,72.75
2018-10-01T16:10:12.777Z,73.66
2018-10-01T16:12:54.552Z,73.98
2018-10-01T16:15:29.372Z,74.52
2018-10-01T16:18:04.185Z,74.20
2018-10-01T16:20:38.999Z,73.54
2018-10-01T16:23:14.981Z,72.89
2018-10-01T16:25:52.460Z,73.76
2018-10-01T16:28:27.479Z,75.59
2018-10-01T16:31:01.988Z,72.99
2018-10-01T16:33:38.077Z,73.16
2018-10-01T16:36:13.839Z,74.59
2018-10-01T16:38:48.756Z,75.18
2018-10-01T16:41:28.732Z,75.23
2018-10-01T16:44:03.491Z,76.05
2018-10-01T16:46:37.804Z,76.00
2018-10-01T16:49:12.548Z,75.98
2018-10-01T16:51:47.724Z,75.80
2018-10-01T16:54:22.956Z,76.29
2018-10-01T16:56:57.770Z,76.72
2018-10-01T16:59:33.516Z,76.66
2018-10-01T17:02:08.802Z,76.61
2018-10-01T17:04:43.196Z,75.77
2018-10-01T17:07:17.645Z,74.31
2018-10-01T17:09:52.140Z,73.76
2018-10-01T17:12:26.426Z,74.31
2018-10-01T17:15:01.220Z,75.47
2018-10-01T17:17:36.399Z,74.07
2018-10-01T17:20:10.866Z,75.89
2018-10-01T17:25:47.837Z,76.37
2018-10-01T17:28:22.584Z,75.60
2018-10-01T17:30:56.913Z,76.66
2018-10-01T17:33:31.576Z,77.58
2018-10-01T17:36:06.008Z,75.05
2018-10-01T17:38:40.543Z,75.06
2018-10-01T17:41:14.979Z,76.07
2018-10-01T17:43:49.497Z,75.29
2018-10-01T17:46:24.284Z,76.85
2018-10-01T17:48:58.678Z,78.09
2018-10-01T17:51:32.996Z,77.92
2018-10-01T17:54:07.503Z,76.67
2018-10-01T17:56:42.651Z,76.22
2018-10-01T17:59:17.048Z,77.05
2018-10-01T18:01:51.831Z,77.16
2018-10-01T18:04:26.456Z,76.29
2018-10-01T18:07:01.712Z,75.67
2018-10-01T18:09:36.649Z,75.76
2018-10-01T18:12:11.107Z,76.53
2018-10-01T18:14:45.812Z,75.35
2018-10-01T18:17:20.570Z,75.06
2018-10-01T18:19:55.232Z,74.57
2018-10-01T18:22:30.157Z,74.97
2018-10-01T18:25:05.279Z,75.01
2018-10-01T18:27:47.313Z,74.73
2018-10-01T18:30:22.303Z,75.60
2018-10-01T18:35:46.368Z,75.86
2018-10-01T18:38:21.563Z,76.37
2018-10-01T18:40:56.570Z,76.98
2018-10-01T18:43:34.327Z,77.07
2018-10-01T18:46:12.548Z,77.17
2018-10-01T18:48:47.008Z,76.83
2018-10-01T18:51:21.961Z,76.89
2018-10-01T18:53:56.831Z,77.47
2018-10-01T18:56:33.891Z,78.29
2018-10-01T18:59:09.417Z,78.16
2018-10-01T19:01:49.041Z,79.31
2018-10-01T19:04:23.856Z,79.22
2018-10-01T19:06:59.453Z,79.67
2018-10-01T19:09:34.115Z,80.49
2018-10-01T19:12:33.568Z,80.27
2018-10-01T19:15:09.828Z,80.10
2018-10-01T19:17:45.070Z,79.08
2018-10-01T19:20:20.263Z,79.04
2018-10-01T19:22:56.949Z,78.17
2018-10-01T19:25:31.603Z,77.53
2018-10-01T19:28:06.212Z,77.55
2018-10-01T19:31:00.956Z,77.96
2018-10-01T19:33:35.585Z,77.00
2018-10-01T19:36:10.742Z,77.40
2018-10-01T19:38:45.972Z,76.59
2018-10-01T19:41:21.183Z,77.16
2018-10-01T19:43:55.508Z,76.92
2018-10-01T19:46:33.360Z,75.79
2018-10-01T19:49:08.127Z,75.79
2018-10-01T19:51:42.619Z,75.78
2018-10-01T19:57:03.760Z,76.69
2018-10-01T19:59:40.516Z,76.66
2018-10-01T20:02:15.162Z,77.19
2018-10-01T20:04:49.546Z,78.01
2018-10-01T20:10:48.991Z,79.40
2018-10-01T20:13:23.744Z,80.39
2018-10-01T20:16:02.808Z,79.73
2018-10-01T20:18:37.767Z,79.69
2018-10-01T20:21:12.619Z,79.94
2018-10-01T20:23:47.903Z,80.45
2018-10-01T20:26:22.555Z,80.00
2018-10-01T20:29:01.598Z,80.42
2018-10-01T20:31:36.217Z,80.44
2018-10-01T20:34:10.956Z,80.91
2018-10-01T20:36:45.558Z,80.67
2018-10-01T20:39:20.643Z,81.60
2018-10-01T20:41:55.190Z,80.38
2018-10-01T20:44:29.827Z,80.66
2018-10-01T20:47:04.166Z,80.39
2018-10-01T20:49:38.973Z,80.29
2018-10-01T20:52:13.815Z,81.10
2018-10-01T20:54:49.012Z,81.18
2018-10-01T20:57:23.634Z,81.63
2018-10-01T20:59:58.196Z,81.70
2018-10-01T21:02:33.062Z,82.13
2018-10-01T21:05:11.463Z,81.68
2018-10-01T21:07:49.247Z,82.37
2018-10-01T21:10:26.941Z,82.59
2018-10-01T21:13:06.824Z,82.61
2018-10-01T21:15:41.736Z,82.09
2018-10-01T21:18:16.135Z,81.79
2018-10-01T21:20:50.476Z,81.92
2018-10-01T21:23:25.116Z,81.83
2018-10-01T21:26:00.107Z,82.32
2018-10-01T21:28:34.750Z,81.94
2018-10-01T21:31:09.371Z,81.82
2018-10-01T21:33:43.879Z,81.78
2018-10-01T21:36:18.402Z,80.80
2018-10-01T21:38:52.972Z,79.82
2018-10-01T21:41:27.835Z,79.61
2018-10-01T21:44:02.275Z,76.83
2018-10-01T21:46:36.596Z,77.13
2018-10-01T21:49:10.992Z,76.12
2018-10-01T21:51:49.484Z,75.39
2018-10-01T21:54:23.876Z,75.67
2018-10-01T21:56:58.367Z,75.97
2018-10-01T21:59:32.993Z,77.43
2018-10-01T22:02:07.793Z,77.42
2018-10-01T22:04:42.599Z,78.09
2018-10-01T22:07:18.143Z,79.56
2018-10-01T22:09:52.808Z,79.61
2018-10-01T22:12:27.111Z,79.67
2018-10-01T22:15:02.925Z,79.87
2018-10-01T22:17:43.927Z,80.57
2018-10-01T22:20:22.841Z,81.31
2018-10-01T22:22:57.659Z,80.53
2018-10-01T22:25:32.195Z,80.74
2018-10-01T22:28:09.053Z,80.70
2018-10-01T22:30:43.895Z,80.47
2018-10-01T22:33:18.741Z,80.01
2018-10-01T22:35:53.181Z,80.17
2018-10-01T22:38:27.796Z,79.65
2018-10-01T22:41:02.225Z,80.61
2018-10-01T22:43:37.119Z,80.29
2018-10-01T22:46:12.030Z,80.10
2018-10-01T22:48:46.821Z,80.59
2018-10-01T22:51:21.889Z,79.66
2018-10-01T22:53:56.500Z,78.98
2018-10-01T22:56:31.474Z,80.37
2018-10-01T22:59:06.436Z,79.76
2018-10-01T23:01:41.612Z,81.20
2018-10-01T23:04:16.016Z,81.02
2018-10-01T23:06:50.964Z,80.27
2018-10-01T23:09:26.243Z,80.39
2018-10-01T23:12:00.974Z,80.73
2018-10-01T23:14:35.456Z,80.57
2018-10-01T23:17:11.236Z,79.97
2018-10-01T23:19:46.404Z,80.72
2018-10-01T23:22:21.406Z,81.42
2018-10-01T23:24:56.359Z,81.34
2018-10-01T23:27:31.009Z,81.24
2018-10-01T23:30:05.760Z,81.69
2018-10-01T23:32:40.192Z,81.13
2018-10-01T23:35:15.283Z,80.88
2018-10-01T23:37:49.751Z,81.10
2018-10-01T23:40:24.259Z,81.34
2018-10-01T23:42:59.115Z,81.13
2018-10-01T23:45:33.784Z,81.25
2018-10-01T23:48:08.878Z,81.61
2018-10-01T23:50:43.775Z,81.45
2018-10-01T23:53:18.303Z,80.49
2018-10-01T23:55:53.343Z,82.15
2018-10-01T23:58:28.219Z,81.85
